Time;durP1;ratioP1;P1;durP2;ratioP2;P2;SDS_P1;SDS_P2;PMS_P1;PMS_P2;Temp;Humidity;BMP_temperature;BMP_pressure;BME280_temperature;BME280_humidity;BME280_pressure;Samples;Min_cycle;Max_cycle;Signal;HPM_P1;HPM_P2
2022/05/28 00:01:28;;;;;;;19.70;2.60;;;;;;;8.98;100.00;101266.97;10237240;28;20049;-68
2022/05/28 00:06:28;;;;;;;14.93;2.58;;;;;;;9.08;100.00;101268.75;10214617;28;20132;-68
2022/05/28 00:11:29;;;;;;;19.85;2.17;;;;;;;9.05;100.00;101289.22;10241423;28;20068;-68
2022/05/28 00:16:25;;;;;;;19.67;2.63;;;;;;;8.95;100.00;101276.53;10233494;28;20053;-67
2022/05/28 00:21:24;;;;;;;9.40;1.45;;;;;;;8.78;100.00;101270.78;10236755;28;20045;-68
2022/05/28 00:26:22;;;;;;;8.18;1.20;;;;;;;8.61;100.00;101261.19;10240745;28;20052;-68
2022/05/28 00:31:19;;;;;;;8.32;0.93;;;;;;;8.45;100.00;101257.00;10263851;28;20099;-69
2022/05/28 00:36:16;;;;;;;9.68;1.25;;;;;;;8.42;100.00;101246.66;10271439;28;20045;-68
2022/05/28 00:41:13;;;;;;;9.52;1.10;;;;;;;8.39;100.00;101277.19;10238371;28;20103;-69
2022/05/28 00:46:13;;;;;;;9.73;1.58;;;;;;;8.27;100.00;101293.16;10269199;28;20124;-69
2022/05/28 00:51:15;;;;;;;6.18;1.30;;;;;;;8.09;100.00;101281.84;10263086;28;20065;-69
2022/05/28 00:56:12;;;;;;;9.65;1.13;;;;;;;8.12;100.00;101305.81;10271044;28;20075;-68
2022/05/28 01:01:10;;;;;;;6.95;1.38;;;;;;;7.96;100.00;101309.75;10250362;28;20041;-68
2022/05/28 01:06:19;;;;;;;12.95;2.65;;;;;;;7.78;100.00;101303.13;10246232;28;20084;-68
2022/05/28 01:11:30;;;;;;;7.90;1.27;;;;;;;7.66;100.00;101291.75;10267351;28;20179;-69
2022/05/28 01:16:41;;;;;;;8.18;1.60;;;;;;;7.47;100.00;101294.34;10248493;28;20420;-69
2022/05/28 01:22:09;;;;;;;9.07;1.35;;;;;;;7.55;100.00;101307.38;10252940;28;20084;-69
2022/05/28 01:27:11;;;;;;;10.32;1.80;;;;;;;7.53;100.00;101301.38;10259040;28;20060;-70
2022/05/28 01:32:09;;;;;;;11.55;3.95;;;;;;;7.63;100.00;101284.97;10260826;28;20507;-70
2022/05/28 01:37:06;;;;;;;10.93;2.28;;;;;;;7.55;100.00;101277.44;10265307;28;20090;-70
2022/05/28 01:42:06;;;;;;;8.00;1.08;;;;;;;7.62;100.00;101272.47;10258156;28;20499;-70
2022/05/28 01:47:02;;;;;;;12.05;1.67;;;;;;;7.60;100.00;101252.91;10256434;28;20041;-70
2022/05/28 01:52:01;;;;;;;7.10;0.82;;;;;;;7.59;100.00;101246.66;10254870;28;20064;-71
2022/05/28 01:56:58;;;;;;;9.85;1.52;;;;;;;7.65;100.00;101239.25;10255094;28;20084;-70
2022/05/28 02:01:57;;;;;;;9.82;1.50;;;;;;;7.66;100.00;101234.59;10256322;28;20052;-70
2022/05/28 02:06:55;;;;;;;8.32;1.20;;;;;;;7.60;100.00;101231.13;10258975;28;20045;-69
2022/05/28 02:12:18;;;;;;;7.07;1.33;;;;;;;7.61;100.00;101221.84;10248465;28;20088;-70
2022/05/28 02:17:22;;;;;;;5.30;1.37;;;;;;;7.63;100.00;101210.69;10254467;28;20060;-70
2022/05/28 02:22:33;;;;;;;7.32;1.30;;;;;;;7.56;100.00;101235.50;10250378;28;20449;-71
2022/05/28 02:27:31;;;;;;;5.68;1.08;;;;;;;7.66;100.00;101227.28;10264443;28;20088;-71
2022/05/28 02:32:28;;;;;;;10.27;1.38;;;;;;;7.58;100.00;101211.53;10263295;28;20506;-70
2022/05/28 02:37:27;;;;;;;10.20;1.33;;;;;;;7.65;100.00;101212.03;10267923;28;20088;-71
2022/05/28 02:42:24;;;;;;;9.85;1.80;;;;;;;7.68;100.00;101227.81;10263707;28;20518;-71
2022/05/28 02:47:21;;;;;;;8.68;1.70;;;;;;;7.70;100.00;101219.31;10260215;28;20087;-69
2022/05/28 02:52:17;;;;;;;6.35;1.10;;;;;;;7.66;100.00;101207.38;10250517;28;20053;-69
2022/05/28 02:57:14;;;;;;;10.77;1.63;;;;;;;7.76;100.00;101219.00;10261658;28;20462;-69
2022/05/28 03:02:10;;;;;;;13.30;2.88;;;;;;;7.67;100.00;101226.16;10257275;28;20120;-71
2022/05/28 03:07:07;;;;;;;11.68;1.60;;;;;;;7.67;100.00;101225.34;10250246;28;20106;-70
2022/05/28 03:12:04;;;;;;;12.35;1.95;;;;;;;7.66;100.00;101212.81;10247532;28;20152;-70
2022/05/28 03:17:00;;;;;;;18.50;2.85;;;;;;;7.71;100.00;101221.78;10260808;28;20077;-70
2022/05/28 03:21:57;;;;;;;10.88;1.48;;;;;;;7.74;100.00;101229.34;10266108;28;20709;-70
2022/05/28 03:26:57;;;;;;;11.18;3.15;;;;;;;7.76;100.00;101223.63;10249092;28;20883;-70
2022/05/28 03:31:55;;;;;;;8.23;1.70;;;;;;;7.88;100.00;101232.22;10248133;28;20469;-70
2022/05/28 03:36:51;;;;;;;14.93;2.85;;;;;;;7.98;100.00;101226.69;10247411;28;20106;-70
2022/05/28 03:41:48;;;;;;;12.85;2.10;;;;;;;7.97;100.00;101233.22;10248612;28;20054;-71
2022/05/28 03:46:44;;;;;;;13.75;2.08;;;;;;;8.03;100.00;101234.00;10262555;28;20080;-70
2022/05/28 03:51:41;;;;;;;17.20;2.03;;;;;;;7.95;100.00;101240.88;10262286;28;20519;-70
2022/05/28 03:56:40;;;;;;;17.08;2.53;;;;;;;7.96;100.00;101245.22;10261058;28;20049;-70
2022/05/28 04:01:37;;;;;;;8.55;1.60;;;;;;;7.98;100.00;101234.03;10243131;28;20120;-70
2022/05/28 04:06:36;;;;;;;13.35;2.05;;;;;;;8.01;100.00;101245.19;10248159;28;20073;-69
2022/05/28 04:11:35;;;;;;;9.95;1.60;;;;;;;8.03;100.00;101247.63;10271563;28;20628;-69
2022/05/28 04:16:32;;;;;;;16.08;2.65;;;;;;;8.19;100.00;101243.63;10268897;28;20108;-68
2022/05/28 04:21:29;;;;;;;16.38;2.50;;;;;;;8.35;100.00;101257.88;10246998;28;20041;-69
2022/05/28 04:26:26;;;;;;;11.80;1.67;;;;;;;8.40;100.00;101267.94;10267831;28;20681;-70
2022/05/28 04:31:22;;;;;;;16.52;2.47;;;;;;;8.44;100.00;101263.53;10252401;28;20045;-67
2022/05/28 04:36:19;;;;;;;15.00;3.10;;;;;;;8.54;100.00;101260.72;10251192;28;20069;-68
2022/05/28 04:41:15;;;;;;;11.20;1.85;;;;;;;8.62;100.00;101257.34;10253325;28;20176;-67
2022/05/28 04:46:12;;;;;;;9.60;2.10;;;;;;;8.67;100.00;101231.13;10268361;28;20083;-69
2022/05/28 04:51:09;;;;;;;13.63;1.60;;;;;;;8.62;100.00;101257.34;10257601;28;20526;-69
2022/05/28 04:56:06;;;;;;;15.93;2.10;;;;;;;8.71;100.00;101253.97;10246475;28;20151;-69
2022/05/28 05:01:12;;;;;;;17.20;2.13;;;;;;;8.74;100.00;101247.94;10259798;28;20041;-68
2022/05/28 05:06:09;;;;;;;17.15;2.33;;;;;;;8.72;100.00;101266.50;10265777;28;20045;-68
2022/05/28 05:11:12;;;;;;;12.75;1.92;;;;;;;8.70;100.00;101268.69;10265106;28;20467;-69
2022/05/28 05:16:14;;;;;;;11.57;1.80;;;;;;;8.75;100.00;101266.72;10255757;28;20483;-69
2022/05/28 05:21:12;;;;;;;16.52;2.22;;;;;;;8.84;100.00;101264.16;10259863;28;20118;-70
2022/05/28 05:26:14;;;;;;;14.80;2.00;;;;;;;8.85;100.00;101263.88;10276392;28;20049;-70
2022/05/28 05:31:12;;;;;;;14.35;2.17;;;;;;;8.89;100.00;101277.75;10266547;28;20136;-70
2022/05/28 05:36:09;;;;;;;15.57;3.03;;;;;;;8.98;100.00;101265.06;10266193;28;20706;-70
2022/05/28 05:41:06;;;;;;;14.90;2.80;;;;;;;9.12;100.00;101276.06;10269141;28;20041;-70
2022/05/28 05:46:03;;;;;;;12.82;2.47;;;;;;;9.31;100.00;101278.78;10270895;28;20167;-70
2022/05/28 05:51:11;;;;;;;13.98;2.05;;;;;;;9.50;100.00;101270.59;10260832;28;20049;-71
2022/05/28 05:56:09;;;;;;;16.75;2.58;;;;;;;9.63;100.00;101274.47;10247729;28;20119;-71
2022/05/28 06:01:07;;;;;;;15.30;2.25;;;;;;;9.70;100.00;101291.31;10259466;28;20120;-70
2022/05/28 06:06:05;;;;;;;18.77;2.05;;;;;;;9.74;100.00;101292.31;10253646;28;20470;-69
2022/05/28 06:11:01;;;;;;;9.82;1.70;;;;;;;9.68;100.00;101293.53;10268391;28;20041;-70
2022/05/28 06:15:58;;;;;;;8.80;1.77;;;;;;;9.77;100.00;101294.47;10264848;28;20512;-70
2022/05/28 06:20:55;;;;;;;14.95;2.17;;;;;;;9.82;100.00;101282.66;10254712;28;20372;-71
2022/05/28 06:25:52;;;;;;;9.80;1.70;;;;;;;9.88;100.00;101287.69;10264087;28;20080;-70
2022/05/28 06:30:50;;;;;;;7.63;1.27;;;;;;;9.95;100.00;101291.97;10251751;28;20133;-70
2022/05/28 06:35:47;;;;;;;11.18;1.90;;;;;;;10.02;100.00;101289.66;10265334;28;20087;-71
2022/05/28 06:40:43;;;;;;;11.05;1.92;;;;;;;9.99;100.00;101287.53;10274034;28;20091;-69
2022/05/28 06:45:40;;;;;;;20.58;2.75;;;;;;;10.12;100.00;101286.78;10262032;28;20060;-68
2022/05/28 06:55:52;;;;;;;20.35;2.25;;;;;;;10.22;100.00;101283.84;10265056;28;20080;-68
2022/05/28 07:00:49;;;;;;;10.13;1.65;;;;;;;10.41;100.00;101272.03;10267915;28;20053;-66
2022/05/28 07:05:45;;;;;;;11.88;2.53;;;;;;;10.47;100.00;101270.84;10267707;28;20120;-68
2022/05/28 07:10:45;;;;;;;14.32;3.28;;;;;;;10.52;100.00;101268.81;10264478;28;20098;-69
2022/05/28 07:15:41;;;;;;;23.48;2.65;;;;;;;10.42;100.00;101290.06;10264479;28;20072;-66
2022/05/28 07:20:38;;;;;;;16.35;2.53;;;;;;;10.40;100.00;101281.38;10265893;28;20444;-66
2022/05/28 07:25:35;;;;;;;13.18;2.53;;;;;;;10.65;100.00;101289.06;10260834;28;20128;-69
2022/05/28 07:30:32;;;;;;;11.93;2.25;;;;;;;10.88;100.00;101292.69;10261222;28;20110;-67
2022/05/28 07:35:28;;;;;;;12.95;2.05;;;;;;;10.81;100.00;101288.75;10255769;28;20156;-66
2022/05/28 07:40:25;;;;;;;11.38;2.38;;;;;;;10.69;100.00;101322.06;10255045;28;20114;-68
2022/05/28 07:45:24;;;;;;;5.75;1.40;;;;;;;10.29;100.00;101322.53;10243602;28;20733;-68
2022/05/28 07:50:21;;;;;;;17.73;3.00;;;;;;;10.40;100.00;101330.56;10258481;28;20947;-66
2022/05/28 07:55:18;;;;;;;15.60;2.17;;;;;;;10.34;100.00;101331.78;10255547;28;20150;-66
2022/05/28 08:00:16;;;;;;;9.77;2.55;;;;;;;10.35;100.00;101328.75;10255455;28;20558;-66
2022/05/28 08:05:13;;;;;;;16.63;2.67;;;;;;;10.50;100.00;101327.66;10253616;28;20048;-66
2022/05/28 08:10:09;;;;;;;11.23;2.80;;;;;;;10.59;100.00;101333.22;10261071;28;20482;-71
2022/05/28 08:15:07;;;;;;;13.90;2.35;;;;;;;10.70;100.00;101321.78;10266953;28;20650;-70
2022/05/28 08:20:04;;;;;;;16.42;2.83;;;;;;;10.88;100.00;101319.22;10263754;28;20128;-69
2022/05/28 08:25:00;;;;;;;19.45;4.03;;;;;;;11.07;100.00;101311.72;10257844;28;20473;-69
2022/05/28 08:29:57;;;;;;;13.80;2.40;;;;;;;11.22;100.00;101317.97;10260934;28;20498;-71
2022/05/28 08:34:53;;;;;;;18.48;3.13;;;;;;;11.31;100.00;101332.56;10268802;28;20056;-70
2022/05/28 08:39:50;;;;;;;8.68;1.70;;;;;;;10.84;100.00;101351.06;10260969;28;20111;-70
2022/05/28 08:44:46;;;;;;;12.88;2.20;;;;;;;10.72;100.00;101349.66;10246547;28;20052;-70
2022/05/28 08:49:48;;;;;;;14.73;2.80;;;;;;;10.84;100.00;101346.41;10263926;28;20048;-70
2022/05/28 08:54:58;;;;;;;14.77;2.75;;;;;;;11.09;100.00;101353.28;10264599;28;20081;-71
2022/05/28 08:59:59;;;;;;;10.07;2.28;;;;;;;10.96;100.00;101376.00;10261983;28;20502;-72
2022/05/28 09:04:59;;;;;;;10.68;2.78;;;;;;;10.60;100.00;101379.38;10258327;28;20052;-70
2022/05/28 09:09:56;;;;;;;13.48;2.00;;;;;;;10.40;100.00;101379.78;10256700;28;20091;-69
2022/05/28 09:14:53;;;;;;;12.82;1.63;;;;;;;10.66;100.00;101375.47;10264694;28;20091;-70
2022/05/28 09:19:49;;;;;;;11.38;1.98;;;;;;;10.87;100.00;101380.56;10262256;28;20072;-69
2022/05/28 09:24:46;;;;;;;8.30;1.45;;;;;;;11.25;100.00;101377.59;10240597;28;20041;-66
2022/05/28 09:30:01;;;;;;;12.18;2.15;;;;;;;11.50;100.00;101374.28;10237271;28;20691;-66
2022/05/28 09:35:14;;;;;;;15.00;2.35;;;;;;;11.72;100.00;101361.75;10251020;28;20095;-65
2022/05/28 09:40:20;;;;;;;12.30;2.20;;;;;;;11.24;100.00;101381.44;10248773;28;20130;-65
2022/05/28 09:45:25;;;;;;;22.75;3.58;;;;;;;10.95;100.00;101402.53;10249894;28;20045;-66
2022/05/28 09:50:22;;;;;;;15.60;2.65;;;;;;;10.72;100.00;101408.97;10257309;28;20114;-66
2022/05/28 09:55:19;;;;;;;11.85;2.78;;;;;;;10.72;100.00;101409.81;10259635;28;20044;-66
2022/05/28 10:00:16;;;;;;;14.20;2.20;;;;;;;11.26;100.00;101406.59;10264493;28;20199;-66
2022/05/28 10:05:16;;;;;;;16.02;2.58;;;;;;;11.47;100.00;101396.03;10260317;28;20080;-66
2022/05/28 10:10:19;;;;;;;17.25;2.65;;;;;;;12.04;100.00;101390.06;10245255;28;20705;-67
2022/05/28 10:15:23;;;;;;;15.43;2.47;;;;;;;12.43;100.00;101381.94;10258102;28;20479;-66
2022/05/28 10:20:21;;;;;;;10.88;2.03;;;;;;;12.51;100.00;101387.78;10261986;28;20041;-66
2022/05/28 10:25:48;;;;;;;16.73;2.17;;;;;;;12.17;100.00;101398.25;10252354;28;20426;-66
2022/05/28 10:30:45;;;;;;;12.63;1.90;;;;;;;12.07;100.00;101378.47;10226482;28;20049;-66
2022/05/28 10:35:42;;;;;;;10.23;1.50;;;;;;;12.39;100.00;101378.22;10246561;28;20091;-66
2022/05/28 10:40:56;;;;;;;15.45;2.17;;;;;;;12.29;100.00;101383.97;10244404;28;20069;-66
2022/05/28 10:46:14;;;;;;;12.40;1.98;;;;;;;12.07;100.00;101392.19;10246403;28;20703;-66
2022/05/28 10:51:36;;;;;;;18.30;2.90;;;;;;;12.33;100.00;101390.44;10257833;28;20055;-66
2022/05/28 10:56:51;;;;;;;17.75;1.80;;;;;;;12.43;100.00;101392.91;10247830;28;20083;-66
2022/05/28 11:02:12;;;;;;;15.70;2.08;;;;;;;12.99;100.00;101385.09;10252253;28;20045;-66
2022/05/28 11:07:19;;;;;;;13.05;1.60;;;;;;;14.12;100.00;101373.44;10257607;28;20068;-66
2022/05/28 11:12:40;;;;;;;10.95;2.05;;;;;;;15.45;100.00;101365.94;10257702;28;20052;-69
2022/05/28 11:18:17;;;;;;;10.38;2.13;;;;;;;15.63;100.00;101365.81;10252045;28;20103;-66
2022/05/28 11:23:28;;;;;;;12.20;2.53;;;;;;;13.40;100.00;101381.19;10258044;28;20465;-66
2022/05/28 11:28:41;;;;;;;19.70;3.25;;;;;;;12.72;100.00;101413.56;10246793;28;20037;-66
2022/05/28 11:33:42;;;;;;;15.80;3.33;;;;;;;11.95;100.00;101437.44;10250558;28;20048;-66
2022/05/28 11:38:50;;;;;;;17.73;3.13;;;;;;;11.41;100.00;101452.81;10247202;28;20041;-66
2022/05/28 11:43:52;;;;;;;26.98;3.70;;;;;;;11.01;100.00;101452.50;10253354;28;20493;-66
2022/05/28 11:54:40;;;;;;;15.32;2.80;;;;;;;11.22;100.00;101454.84;10258421;28;20453;-66
2022/05/28 11:59:38;;;;;;;19.65;3.58;;;;;;;11.63;100.00;101430.16;10249855;28;20068;-67
2022/05/28 12:04:41;;;;;;;24.30;3.20;;;;;;;11.47;100.00;101424.22;10249234;28;20095;-66
2022/05/28 12:09:45;;;;;;;15.23;2.63;;;;;;;11.53;100.00;101428.47;10249685;28;20385;-66
2022/05/28 12:14:47;;;;;;;17.37;3.07;;;;;;;12.07;100.00;101414.09;10253620;28;20036;-66
2022/05/28 12:20:10;;;;;;;14.82;1.92;;;;;;;12.13;100.00;101407.41;10250067;28;20537;-66
2022/05/28 12:25:31;;;;;;;13.73;1.77;;;;;;;12.00;100.00;101415.38;10252712;28;20052;-66
2022/05/28 12:30:48;;;;;;;12.82;3.00;;;;;;;11.89;100.00;101419.47;10251092;28;20037;-66
2022/05/28 12:36:06;;;;;;;11.85;1.95;;;;;;;11.83;100.00;101409.69;10260499;28;20111;-66
2022/05/28 12:41:03;;;;;;;21.02;3.40;;;;;;;12.14;100.00;101404.34;10259328;28;20102;-66
2022/05/28 12:46:33;;;;;;;12.02;2.55;;;;;;;12.36;100.00;101430.94;10262385;28;20128;-66
2022/05/28 12:52:08;;;;;;;10.35;1.58;;;;;;;12.40;100.00;101429.19;10256592;28;20124;-68
2022/05/28 12:57:14;;;;;;;11.10;2.05;;;;;;;12.33;100.00;101430.78;10246586;28;20195;-68
2022/05/28 13:02:16;;;;;;;17.23;2.42;;;;;;;12.21;100.00;101417.63;10244522;28;20053;-68
2022/05/28 13:07:39;;;;;;;11.93;1.90;;;;;;;12.15;100.00;101432.56;10261819;28;20502;-68
2022/05/28 13:12:42;;;;;;;8.35;1.33;;;;;;;11.90;100.00;101448.47;10239261;28;20136;-68
2022/05/28 13:17:47;;;;;;;16.38;1.58;;;;;;;11.89;100.00;101455.09;10255530;28;20116;-68
2022/05/28 13:23:01;;;;;;;20.83;7.22;;;;;;;12.02;100.00;101445.19;10250342;28;20489;-65
2022/05/28 13:28:25;;;;;;;12.95;2.00;;;;;;;12.45;100.00;101441.19;10256812;28;20068;-65
2022/05/28 13:33:22;;;;;;;16.55;2.80;;;;;;;12.28;100.00;101448.16;10256852;28;20048;-65
2022/05/28 13:38:27;;;;;;;11.35;2.20;;;;;;;12.23;100.00;101451.03;10262579;28;20073;-59
2022/05/28 13:43:35;;;;;;;12.27;2.67;;;;;;;12.14;100.00;101452.91;10264606;28;20651;-60
2022/05/28 13:48:38;;;;;;;13.80;2.58;;;;;;;12.04;100.00;101459.41;10257168;28;20486;-59
2022/05/28 13:53:38;;;;;;;9.57;1.92;;;;;;;11.66;100.00;101459.69;10270366;28;20103;-60
2022/05/28 13:58:43;;;;;;;12.38;2.80;;;;;;;11.28;100.00;101464.56;10260862;28;20103;-60
2022/05/28 14:03:40;;;;;;;9.20;2.05;;;;;;;11.34;100.00;101463.34;10271075;28;20056;-61
2022/05/28 14:08:40;;;;;;;14.63;2.13;;;;;;;11.29;100.00;101464.25;10261847;28;20071;-61
2022/05/28 14:13:45;;;;;;;11.82;1.80;;;;;;;11.22;100.00;101471.28;10263639;28;20489;-61
2022/05/28 14:18:41;;;;;;;15.15;2.42;;;;;;;11.04;100.00;101481.97;10259942;28;20552;-62
2022/05/28 14:23:43;;;;;;;14.55;2.22;;;;;;;10.90;100.00;101475.69;10263712;28;20048;-62
2022/05/28 14:28:42;;;;;;;11.95;2.63;;;;;;;10.71;100.00;101476.56;10264374;28;20097;-63
2022/05/28 14:33:42;;;;;;;11.45;3.22;;;;;;;10.66;100.00;101460.25;10264503;28;20741;-64
2022/05/28 14:38:39;;;;;;;15.63;3.58;;;;;;;10.97;100.00;101456.94;10261198;28;20465;-62
2022/05/28 14:43:36;;;;;;;13.43;2.63;;;;;;;10.95;100.00;101450.97;10259628;28;20162;-62
2022/05/28 14:48:33;;;;;;;15.30;2.65;;;;;;;10.80;100.00;101456.72;10261634;28;20126;-63
2022/05/28 14:53:50;;;;;;;19.38;2.55;;;;;;;10.94;100.00;101452.09;10267886;28;20047;-61
2022/05/28 14:58:50;;;;;;;26.48;4.10;;;;;;;11.00;100.00;101461.00;10259759;28;20115;-61
2022/05/28 15:03:47;;;;;;;17.88;3.53;;;;;;;10.93;100.00;101461.41;10254601;28;20140;-60
2022/05/28 15:08:49;;;;;;;18.63;3.50;;;;;;;10.94;100.00;101455.63;10248414;28;20405;-67
2022/05/28 15:13:45;;;;;;;26.20;3.40;;;;;;;11.05;100.00;101455.44;10250622;28;20045;-67
2022/05/28 15:18:42;;;;;;;20.38;4.22;;;;;;;11.51;100.00;101458.09;10250057;28;20769;-67
2022/05/28 15:23:38;;;;;;;12.13;2.08;;;;;;;11.34;100.00;101446.94;10232948;28;20080;-67
2022/05/28 15:28:35;;;;;;;19.40;3.78;;;;;;;11.08;100.00;101450.16;10265090;28;20071;-67
2022/05/28 15:33:31;;;;;;;13.85;2.28;;;;;;;11.14;100.00;101448.16;10254283;28;20067;-67
2022/05/28 15:38:29;;;;;;;14.40;2.20;;;;;;;11.67;100.00;101457.75;10257255;28;20115;-69
2022/05/28 15:43:27;;;;;;;11.52;1.85;;;;;;;11.51;100.00;101452.59;10259023;28;20553;-68
2022/05/28 15:48:23;;;;;;;17.92;2.80;;;;;;;11.66;100.00;101456.13;10262739;28;20132;-68
2022/05/28 15:53:20;;;;;;;14.20;2.50;;;;;;;11.34;100.00;101455.13;10256094;28;20628;-68
2022/05/28 15:58:26;;;;;;;17.40;2.85;;;;;;;11.19;100.00;101461.75;10261754;28;20087;-67
2022/05/28 16:03:23;;;;;;;20.75;3.00;;;;;;;11.02;100.00;101456.84;10256976;28;20056;-66
2022/05/28 16:13:19;;;;;;;16.15;3.88;;;;;;;11.06;100.00;101448.84;10256580;28;20118;-70
2022/05/28 16:18:18;;;;;;;20.50;3.25;;;;;;;11.06;100.00;101443.38;10242175;28;20080;-70
2022/05/28 16:23:14;;;;;;;14.40;3.65;;;;;;;11.10;100.00;101430.72;10252931;28;20126;-69
2022/05/28 16:28:12;;;;;;;22.05;3.42;;;;;;;11.00;100.00;101426.25;10254317;28;20579;-70
2022/05/28 16:33:08;;;;;;;15.02;2.80;;;;;;;10.96;100.00;101441.66;10256887;28;20465;-70
2022/05/28 16:38:05;;;;;;;22.88;3.90;;;;;;;10.95;100.00;101423.59;10261788;28;20092;-70
2022/05/28 16:43:03;;;;;;;14.32;3.08;;;;;;;10.98;100.00;101427.66;10255139;28;20103;-70
2022/05/28 16:47:59;;;;;;;21.90;3.10;;;;;;;10.76;100.00;101447.50;10253041;28;20147;-69
2022/05/28 16:52:56;;;;;;;18.80;2.60;;;;;;;10.54;100.00;101443.50;10256466;28;20045;-70
2022/05/28 16:57:52;;;;;;;18.08;2.42;;;;;;;10.42;100.00;101446.72;10268989;28;20091;-70
2022/05/28 17:02:49;;;;;;;23.77;3.17;;;;;;;10.61;100.00;101446.66;10261571;28;20529;-69
2022/05/28 17:07:45;;;;;;;16.85;3.05;;;;;;;10.64;100.00;101443.31;10267746;28;20671;-69
2022/05/28 17:12:42;;;;;;;17.05;3.10;;;;;;;10.66;100.00;101438.38;10266600;28;20037;-70
2022/05/28 17:17:39;;;;;;;22.98;3.95;;;;;;;10.71;100.00;101441.00;10261492;28;20045;-70
2022/05/28 17:22:38;;;;;;;24.00;4.18;;;;;;;10.65;100.00;101447.69;10275504;28;20119;-69
2022/05/28 17:27:37;;;;;;;19.48;3.72;;;;;;;10.60;100.00;101433.28;10259144;28;20056;-69
2022/05/28 17:32:33;;;;;;;16.98;3.13;;;;;;;10.60;100.00;101439.56;10256555;28;20052;-70
2022/05/28 17:37:32;;;;;;;15.27;2.92;;;;;;;10.54;100.00;101435.31;10269326;28;20083;-70
2022/05/28 17:42:32;;;;;;;15.70;2.42;;;;;;;10.39;100.00;101449.22;10244285;28;20071;-70
2022/05/28 17:47:30;;;;;;;15.85;3.60;;;;;;;10.39;100.00;101422.69;10260516;28;20044;-70
2022/05/28 17:52:26;;;;;;;15.05;2.88;;;;;;;10.37;100.00;101427.63;10267834;28;20102;-70
2022/05/28 17:57:23;;;;;;;16.02;3.20;;;;;;;10.40;100.00;101429.00;10245482;28;20041;-70
2022/05/28 18:02:27;;;;;;;24.77;5.32;;;;;;;10.30;100.00;101417.13;10259275;28;20045;-70
2022/05/28 18:07:25;;;;;;;13.32;3.20;;;;;;;10.38;100.00;101414.81;10250692;28;20106;-70
2022/05/28 18:12:21;;;;;;;9.60;3.65;;;;;;;10.36;100.00;101414.28;10251652;28;20073;-70
2022/05/28 18:17:29;;;;;;;12.68;2.85;;;;;;;10.43;100.00;101406.50;10261391;28;20045;-70
2022/05/28 18:22:26;;;;;;;19.40;3.28;;;;;;;10.42;100.00;101404.88;10258215;28;20652;-70
2022/05/28 18:27:25;;;;;;;17.70;3.25;;;;;;;10.39;100.00;101411.75;10258435;28;20099;-70
2022/05/28 18:32:22;;;;;;;18.48;3.42;;;;;;;10.39;100.00;101406.28;10252570;28;20526;-70
2022/05/28 18:37:18;;;;;;;15.77;3.92;;;;;;;10.41;100.00;101408.72;10257506;28;20045;-70
2022/05/28 18:42:19;;;;;;;14.95;3.55;;;;;;;10.22;100.00;101406.81;10259545;28;20073;-69
2022/05/28 18:47:16;;;;;;;12.32;2.80;;;;;;;10.10;100.00;101399.09;10249879;28;20392;-70
2022/05/28 18:52:13;;;;;;;16.67;4.72;;;;;;;10.10;100.00;101392.81;10242440;28;20045;-70
2022/05/28 18:57:11;;;;;;;17.10;4.38;;;;;;;9.93;100.00;101392.53;10252932;28;20045;-70
2022/05/28 19:02:11;;;;;;;17.70;4.63;;;;;;;9.94;100.00;101392.25;10257059;28;20203;-70
2022/05/28 19:07:18;;;;;;;18.92;4.35;;;;;;;9.86;100.00;101393.72;10259788;28;20112;-70
2022/05/28 19:12:24;;;;;;;18.13;5.20;;;;;;;9.89;100.00;101397.78;10256784;28;20465;-69
2022/05/28 19:17:32;;;;;;;16.70;4.38;;;;;;;9.94;100.00;101396.91;10256950;28;20041;-69
2022/05/28 19:22:29;;;;;;;16.67;4.28;;;;;;;9.93;100.00;101392.53;10253350;28;20143;-69
2022/05/28 19:27:25;;;;;;;13.57;4.93;;;;;;;9.92;100.00;101380.81;10257240;28;20072;-70
2022/05/28 19:32:40;;;;;;;15.05;4.25;;;;;;;9.92;100.00;101388.19;10253480;28;20110;-69
2022/05/28 19:37:37;;;;;;;12.32;3.85;;;;;;;9.98;100.00;101384.25;10250747;28;20108;-70
2022/05/28 19:42:38;;;;;;;23.05;4.85;;;;;;;9.89;100.00;101384.94;10244788;28;20594;-69
2022/05/28 19:47:35;;;;;;;14.60;3.95;;;;;;;9.93;100.00;101392.53;10252147;28;20497;-69
2022/05/28 19:52:32;;;;;;;15.00;4.18;;;;;;;9.98;100.00;101385.09;10260638;28;20041;-69
2022/05/28 19:57:28;;;;;;;21.17;5.93;;;;;;;9.93;100.00;101381.59;10249830;28;20502;-69
2022/05/28 20:02:30;;;;;;;13.63;3.92;;;;;;;10.03;100.00;101378.72;10261332;28;20083;-70
2022/05/28 20:07:26;;;;;;;16.85;4.43;;;;;;;10.05;100.00;101371.84;10240702;28;20076;-69
2022/05/28 20:12:23;;;;;;;17.30;4.30;;;;;;;10.05;100.00;101373.78;10255120;28;20041;-69
2022/05/28 20:17:27;;;;;;;14.07;4.07;;;;;;;10.03;100.00;101365.06;10249866;28;20064;-69
2022/05/28 20:22:24;;;;;;;12.63;3.85;;;;;;;10.06;100.00;101354.34;10246529;28;20049;-69
2022/05/28 20:27:20;;;;;;;15.80;4.35;;;;;;;10.08;100.00;101362.25;10249411;28;20048;-70
2022/05/28 20:32:17;;;;;;;11.48;3.75;;;;;;;9.98;100.00;101356.94;10252210;28;20056;-69
2022/05/28 20:37:21;;;;;;;16.75;5.72;;;;;;;9.96;100.00;101353.72;10244692;28;20660;-69
2022/05/28 20:42:18;;;;;;;14.68;4.40;;;;;;;9.87;100.00;101354.38;10241121;28;20049;-70
2022/05/28 20:47:15;;;;;;;13.38;4.03;;;;;;;9.85;100.00;101353.84;10246961;28;20045;-69
2022/05/28 20:52:13;;;;;;;11.95;3.88;;;;;;;9.81;100.00;101347.34;10259160;28;20045;-69
2022/05/28 20:57:10;;;;;;;18.40;4.30;;;;;;;9.76;100.00;101343.91;10260616;28;20049;-69
2022/05/28 21:02:17;;;;;;;14.38;4.45;;;;;;;9.71;100.00;101352.19;10259216;28;20482;-70
2022/05/28 21:07:14;;;;;;;9.82;4.57;;;;;;;9.67;100.00;101354.69;10263630;28;20060;-70
2022/05/28 21:12:10;;;;;;;20.30;7.03;;;;;;;9.60;100.00;101329.69;10253087;28;20041;-70
2022/05/28 21:17:08;;;;;;;16.20;5.57;;;;;;;9.51;100.00;101326.00;10254907;28;20049;-69
2022/05/28 21:22:06;;;;;;;19.20;5.88;;;;;;;9.55;100.00;101337.94;10245662;28;20521;-69
2022/05/28 21:32:31;;;;;;;20.67;5.70;;;;;;;9.54;100.00;101319.94;10259641;28;20136;-69
2022/05/28 21:37:28;;;;;;;20.40;5.20;;;;;;;9.58;100.00;101320.97;10257470;28;20099;-70
2022/05/28 21:42:24;;;;;;;25.20;6.38;;;;;;;9.57;100.00;101319.34;10245531;28;20111;-70
2022/05/28 21:47:23;;;;;;;19.83;5.53;;;;;;;9.47;100.00;101318.41;10252725;28;20049;-70
2022/05/28 21:52:21;;;;;;;20.27;7.40;;;;;;;9.46;100.00;101311.31;10264748;28;20045;-67
2022/05/28 21:57:23;;;;;;;17.02;4.68;;;;;;;9.52;100.00;101305.78;10257315;28;20136;-68
2022/05/28 22:02:22;;;;;;;26.13;6.72;;;;;;;9.52;100.00;101306.59;10253186;28;20041;-68
2022/05/28 22:07:18;;;;;;;17.85;5.03;;;;;;;9.48;100.00;101300.91;10260667;28;20045;-68
2022/05/28 22:12:15;;;;;;;20.38;5.63;;;;;;;9.45;100.00;101309.69;10254962;28;20126;-70
2022/05/28 22:17:18;;;;;;;20.95;5.80;;;;;;;9.48;100.00;101306.34;10246224;28;20114;-71
2022/05/28 22:22:15;;;;;;;21.65;6.05;;;;;;;9.51;100.00;101299.50;10259799;28;20130;-70
2022/05/28 22:27:11;;;;;;;13.52;4.88;;;;;;;9.56;100.00;101290.41;10223711;28;20080;-70
2022/05/28 22:32:10;;;;;;;19.90;4.85;;;;;;;9.52;100.00;101283.94;10251246;28;20060;-68
2022/05/28 22:37:07;;;;;;;22.35;6.65;;;;;;;9.46;100.00;101277.75;10259798;28;20044;-70
2022/05/28 22:42:04;;;;;;;20.10;4.45;;;;;;;9.40;100.00;101271.56;10260995;28;20545;-70
2022/05/28 22:47:01;;;;;;;13.13;4.22;;;;;;;9.42;100.00;101274.81;10255031;28;20102;-70
2022/05/28 22:52:03;;;;;;;21.23;5.20;;;;;;;9.40;100.00;101266.09;10255202;28;20041;-70
2022/05/28 22:57:00;;;;;;;19.15;4.60;;;;;;;9.40;100.00;101268.84;10261126;28;20072;-71
2022/05/28 23:01:56;;;;;;;19.70;6.82;;;;;;;9.40;100.00;101271.56;10266987;28;20064;-71